createdAt,value
2019-05-23T00:00:01.428Z,23.18
2019-05-23T00:02:32.835Z,25.48
2019-05-23T00:05:22.735Z,22.93
2019-05-23T00:07:52.548Z,21.87
2019-05-23T00:10:24.081Z,23.12
2019-05-23T00:13:01.095Z,22.13
2019-05-23T00:15:35.055Z,27.25
2019-05-23T00:18:06.070Z,26.45
2019-05-23T00:20:37.035Z,26.12
2019-05-23T00:23:08.831Z,25.20
2019-05-23T00:25:39.926Z,25.32
2019-05-23T00:28:10.772Z,27.55
2019-05-23T00:30:54.470Z,27.20
2019-05-23T00:33:25.701Z,29.27
2019-05-23T00:35:56.456Z,23.12
2019-05-23T00:38:26.953Z,25.15
2019-05-23T00:40:57.593Z,29.18
2019-05-23T00:43:27.723Z,26.33
2019-05-23T00:45:58.083Z,26.23
2019-05-23T00:48:28.495Z,26.05
2019-05-23T00:50:58.782Z,28.65
2019-05-23T00:53:29.883Z,31.68
2019-05-23T00:56:04.421Z,28.75
2019-05-23T00:58:35.185Z,30.20
2019-05-23T01:01:05.316Z,28.12
2019-05-23T01:03:35.992Z,28.15
2019-05-23T01:06:06.847Z,26.17
2019-05-23T01:08:37.341Z,26.23
2019-05-23T01:11:07.016Z,34.00
2019-05-23T01:13:38.050Z,31.73
2019-05-23T01:16:09.197Z,29.63
2019-05-23T01:18:39.305Z,28.10
2019-05-23T01:21:19.963Z,27.85
2019-05-23T01:23:51.330Z,27.50
2019-05-23T01:26:22.677Z,26.48
2019-05-23T01:28:52.310Z,26.95
2019-05-23T01:31:23.916Z,25.48
2019-05-23T01:33:56.599Z,27.60
2019-05-23T01:36:26.084Z,26.87
2019-05-23T01:38:55.926Z,29.15
2019-05-23T01:41:26.806Z,27.25
2019-05-23T01:43:56.214Z,27.37
2019-05-23T01:46:26.497Z,29.20
2019-05-23T01:48:56.097Z,30.88
2019-05-23T01:51:26.189Z,27.55
2019-05-23T01:53:56.654Z,28.47
2019-05-23T01:56:27.243Z,27.37
2019-05-23T01:58:57.114Z,27.58
2019-05-23T02:01:27.313Z,34.33
2019-05-23T02:03:56.756Z,29.42
2019-05-23T02:06:26.535Z,31.65
2019-05-23T02:08:56.853Z,30.62
2019-05-23T02:11:27.601Z,32.85
2019-05-23T02:13:57.165Z,33.05
2019-05-23T02:16:26.854Z,28.20
2019-05-23T02:18:56.525Z,32.25
2019-05-23T02:21:28.510Z,29.67
2019-05-23T02:23:58.433Z,27.50
2019-05-23T02:26:28.953Z,28.23
2019-05-23T02:28:59.896Z,28.00
2019-05-23T02:31:29.208Z,29.48
2019-05-23T02:33:59.273Z,28.55
2019-05-23T02:36:30.756Z,31.12
2019-05-23T02:39:01.715Z,31.52
2019-05-23T02:41:33.867Z,29.57
2019-05-23T02:44:05.812Z,29.50
2019-05-23T02:46:54.063Z,28.77
2019-05-23T02:49:28.272Z,27.77
2019-05-23T02:52:01.577Z,27.62
2019-05-23T02:54:37.470Z,28.50
2019-05-23T02:57:08.137Z,25.12
2019-05-23T02:59:49.667Z,28.92
2019-05-23T03:02:55.116Z,29.25
2019-05-23T03:05:26.106Z,26.73
2019-05-23T03:07:58.893Z,28.57
2019-05-23T03:10:32.834Z,29.57
2019-05-23T03:13:05.271Z,26.70
2019-05-23T03:15:37.187Z,28.07
2019-05-23T03:18:14.000Z,27.45
2019-05-23T03:20:43.926Z,29.10
2019-05-23T03:23:18.833Z,28.42
2019-05-23T03:26:03.211Z,29.02
2019-05-23T03:28:39.322Z,27.55
2019-05-23T03:31:33.418Z,27.95
2019-05-23T03:33:49.624Z,30.45
2019-05-23T03:36:20.422Z,26.27
2019-05-23T03:38:51.367Z,27.87
2019-05-23T03:41:21.793Z,24.47
2019-05-23T03:43:52.359Z,27.30
2019-05-23T03:46:23.325Z,25.25
2019-05-23T03:48:56.389Z,26.87
2019-05-23T03:51:26.646Z,25.12
2019-05-23T03:53:57.313Z,23.60
2019-05-23T03:56:27.684Z,28.45
2019-05-23T03:58:58.531Z,26.77
2019-05-23T04:01:46.258Z,27.70
2019-05-23T04:04:03.352Z,27.40
2019-05-23T04:06:34.105Z,28.85
2019-05-23T04:09:06.476Z,26.48
2019-05-23T04:11:37.013Z,34.88
2019-05-23T04:14:08.507Z,25.48
2019-05-23T04:16:38.089Z,23.22
2019-05-23T04:19:07.458Z,24.90
2019-05-23T04:21:37.115Z,24.45
2019-05-23T04:24:06.812Z,25.75
2019-05-23T04:26:36.507Z,25.48
2019-05-23T04:29:06.154Z,23.02
2019-05-23T04:31:35.521Z,24.57
2019-05-23T04:34:04.876Z,23.12
2019-05-23T04:36:34.193Z,23.00
2019-05-23T04:39:05.425Z,24.00
2019-05-23T04:41:34.850Z,25.75
2019-05-23T04:44:05.570Z,25.55
2019-05-23T04:46:36.443Z,27.60
2019-05-23T04:49:08.043Z,25.60
2019-05-23T04:51:37.499Z,23.95
2019-05-23T04:54:07.761Z,30.82
2019-05-23T04:56:37.422Z,28.80
2019-05-23T04:59:07.388Z,31.33
2019-05-23T05:01:39.078Z,26.65
2019-05-23T05:04:09.394Z,28.00
2019-05-23T05:06:39.441Z,33.53
2019-05-23T05:09:11.484Z,31.65
2019-05-23T05:11:41.469Z,30.43
2019-05-23T05:14:10.773Z,31.10
2019-05-23T05:16:40.655Z,33.73
2019-05-23T05:19:10.325Z,31.70
2019-05-23T05:21:40.513Z,33.35
2019-05-23T05:24:10.086Z,40.12
2019-05-23T05:26:40.276Z,40.80
2019-05-23T05:29:10.518Z,46.48
2019-05-23T05:31:39.867Z,41.50
2019-05-23T05:34:12.397Z,40.00
2019-05-23T05:36:42.177Z,46.98
2019-05-23T05:39:13.221Z,37.38
2019-05-23T05:41:43.558Z,39.13
2019-05-23T05:44:13.749Z,38.20
2019-05-23T05:46:43.474Z,32.70
2019-05-23T05:49:15.469Z,32.98
2019-05-23T05:51:44.684Z,32.35
2019-05-23T05:54:13.999Z,38.67
2019-05-23T05:56:43.685Z,34.27
2019-05-23T05:59:13.225Z,35.95
2019-05-23T06:01:43.675Z,38.95
2019-05-23T06:04:13.066Z,39.15
2019-05-23T06:06:44.611Z,35.83
2019-05-23T06:09:16.038Z,43.08
2019-05-23T06:11:45.799Z,46.33
2019-05-23T06:14:15.395Z,48.20
2019-05-23T06:16:45.701Z,43.75
2019-05-23T06:19:15.377Z,45.80
2019-05-23T06:21:46.720Z,46.15
2019-05-23T06:24:16.601Z,45.15
2019-05-23T06:26:46.053Z,49.38
2019-05-23T06:29:15.818Z,48.23
2019-05-23T06:31:45.497Z,46.30
2019-05-23T06:34:15.074Z,48.02
2019-05-23T06:36:44.684Z,48.87
2019-05-23T06:39:14.856Z,48.60
2019-05-23T06:41:46.124Z,51.70
2019-05-23T06:44:17.591Z,48.95
2019-05-23T06:46:47.957Z,47.73
2019-05-23T06:49:17.724Z,45.45
2019-05-23T06:51:47.038Z,46.75
2019-05-23T06:54:16.418Z,49.18
2019-05-23T06:56:46.296Z,53.75
2019-05-23T06:59:15.753Z,50.12
2019-05-23T07:01:45.207Z,46.50
2019-05-23T07:04:15.220Z,48.15
2019-05-23T07:06:45.431Z,46.28
2019-05-23T07:09:19.326Z,43.50
2019-05-23T07:11:49.389Z,42.65
2019-05-23T07:14:18.850Z,46.45
2019-05-23T07:16:50.365Z,46.35
2019-05-23T07:19:21.407Z,45.60
2019-05-23T07:21:50.723Z,44.77
2019-05-23T07:24:20.715Z,47.93
2019-05-23T07:26:50.095Z,41.28
2019-05-23T07:29:19.950Z,37.55
2019-05-23T07:31:49.924Z,42.03
2019-05-23T07:34:20.634Z,44.53
2019-05-23T07:36:50.345Z,37.10
2019-05-23T07:39:21.175Z,39.05
2019-05-23T07:41:51.402Z,38.05
2019-05-23T07:44:21.582Z,39.40
2019-05-23T07:46:51.147Z,35.55
2019-05-23T07:49:20.484Z,36.75
2019-05-23T07:51:49.904Z,30.97
2019-05-23T07:54:20.848Z,29.48
2019-05-23T07:56:50.490Z,32.88
2019-05-23T07:59:20.184Z,37.38
2019-05-23T08:01:53.250Z,26.20
2019-05-23T08:04:23.016Z,23.67
2019-05-23T08:06:52.670Z,26.65
2019-05-23T08:09:22.811Z,32.58
2019-05-23T08:11:52.511Z,28.85
2019-05-23T08:14:21.823Z,27.22
2019-05-23T08:16:53.653Z,22.37
2019-05-23T08:19:23.431Z,15.38
2019-05-23T08:21:53.175Z,17.48
2019-05-23T08:24:22.898Z,18.77
2019-05-23T08:26:53.514Z,23.07
2019-05-23T08:29:25.839Z,16.02
2019-05-23T08:31:54.186Z,15.93
2019-05-23T08:34:40.023Z,15.25
2019-05-23T08:36:54.856Z,21.35
2019-05-23T08:39:25.232Z,16.97
2019-05-23T08:41:55.390Z,14.68
2019-05-23T08:44:25.110Z,15.90
2019-05-23T08:46:54.504Z,15.00
2019-05-23T08:49:24.552Z,15.83
2019-05-23T08:51:55.074Z,13.85
2019-05-23T08:54:24.384Z,13.62
2019-05-23T08:56:53.759Z,15.15
2019-05-23T08:59:23.630Z,19.35
2019-05-23T09:01:54.694Z,13.88
2019-05-23T09:04:24.374Z,11.12
2019-05-23T09:06:54.261Z,13.38
2019-05-23T09:09:29.732Z,13.22
2019-05-23T09:11:56.283Z,13.43
2019-05-23T09:14:25.702Z,13.48
2019-05-23T09:16:55.731Z,13.60
2019-05-23T09:19:25.721Z,15.53
2019-05-23T09:21:57.939Z,13.15
2019-05-23T09:24:27.046Z,15.53
2019-05-23T09:26:56.435Z,16.93
2019-05-23T09:29:26.233Z,16.42
2019-05-23T09:31:55.541Z,16.90
2019-05-23T09:34:25.731Z,16.05
2019-05-23T09:36:55.032Z,16.75
2019-05-23T09:39:25.341Z,19.05
2019-05-23T09:41:54.900Z,17.32
2019-05-23T09:44:24.296Z,18.65
2019-05-23T09:46:53.588Z,18.90
2019-05-23T09:49:22.969Z,19.95
2019-05-23T09:51:56.122Z,17.95
2019-05-23T09:54:23.625Z,17.55
2019-05-23T09:56:53.537Z,16.77
2019-05-23T09:59:22.861Z,19.50
2019-05-23T10:01:52.347Z,20.60
2019-05-23T10:04:21.940Z,24.12
2019-05-23T10:06:51.251Z,18.67
2019-05-23T10:09:20.941Z,22.98
2019-05-23T10:11:50.663Z,22.50
2019-05-23T10:14:24.699Z,24.65
2019-05-23T10:16:56.906Z,22.32
2019-05-23T10:19:26.855Z,17.75
2019-05-23T10:21:56.162Z,20.25
2019-05-23T10:24:25.757Z,18.07
2019-05-23T10:26:55.053Z,23.83
2019-05-23T10:29:24.364Z,18.30
2019-05-23T10:31:54.137Z,18.48
2019-05-23T10:34:23.539Z,13.35
2019-05-23T10:36:52.893Z,11.10
2019-05-23T10:39:22.707Z,13.75
2019-05-23T10:41:52.017Z,12.73
2019-05-23T10:44:21.406Z,12.37
2019-05-23T10:46:50.705Z,11.73
2019-05-23T10:49:20.825Z,10.82
2019-05-23T10:51:50.510Z,10.23
2019-05-23T10:54:19.907Z,10.00
2019-05-23T10:56:49.195Z,9.63
2019-05-23T10:59:18.829Z,12.88
2019-05-23T11:01:49.134Z,9.28
2019-05-23T11:04:18.718Z,11.68
2019-05-23T11:06:49.189Z,13.95
2019-05-23T11:09:36.227Z,8.93
2019-05-23T11:11:50.861Z,9.05
2019-05-23T11:14:20.177Z,7.45
2019-05-23T11:16:49.767Z,8.63
2019-05-23T11:19:19.702Z,8.68
2019-05-23T11:21:49.414Z,9.53
2019-05-23T11:24:18.736Z,9.60
2019-05-23T11:26:48.035Z,9.65
2019-05-23T11:29:17.418Z,13.05
2019-05-23T11:31:47.101Z,11.30
2019-05-23T11:34:16.581Z,11.25
2019-05-23T11:36:45.883Z,10.50
2019-05-23T11:39:16.600Z,11.28
2019-05-23T11:41:46.450Z,9.68
2019-05-23T11:44:16.058Z,9.23
2019-05-23T11:46:46.603Z,11.97
2019-05-23T11:49:16.177Z,10.78
2019-05-23T11:51:46.170Z,10.68
2019-05-23T11:54:15.834Z,10.88
2019-05-23T11:56:45.691Z,11.43
2019-05-23T11:59:14.986Z,13.08
2019-05-23T12:01:51.622Z,11.50
2019-05-23T12:04:22.200Z,11.30
2019-05-23T12:06:55.873Z,14.40
2019-05-23T12:09:24.725Z,8.35
2019-05-23T12:11:54.103Z,9.33
2019-05-23T12:14:23.414Z,12.45
2019-05-23T12:16:55.139Z,10.08
2019-05-23T12:19:24.947Z,8.38
2019-05-23T12:21:57.871Z,11.08
2019-05-23T12:24:27.242Z,10.82
2019-05-23T12:26:56.903Z,8.98
2019-05-23T12:29:26.833Z,9.68
2019-05-23T12:31:57.104Z,9.03
2019-05-23T12:34:26.525Z,8.53
2019-05-23T12:37:16.789Z,10.10
2019-05-23T12:39:27.321Z,11.93
2019-05-23T12:41:56.659Z,7.90
2019-05-23T12:44:26.054Z,9.80
2019-05-23T12:46:55.409Z,8.43
2019-05-23T12:49:26.344Z,6.67
2019-05-23T12:51:57.270Z,8.05
2019-05-23T12:54:26.633Z,7.53
2019-05-23T12:56:56.385Z,7.80
2019-05-23T12:59:26.637Z,7.70
2019-05-23T13:01:57.604Z,10.43
2019-05-23T13:04:27.037Z,10.40
2019-05-23T13:06:56.349Z,8.95
2019-05-23T13:09:25.672Z,9.10
2019-05-23T13:11:57.020Z,9.43
2019-05-23T13:14:26.484Z,8.68
2019-05-23T13:17:00.344Z,9.63
2019-05-23T13:19:27.546Z,8.03
2019-05-23T13:21:57.222Z,10.53
2019-05-23T13:24:27.386Z,10.05
2019-05-23T13:26:57.333Z,7.65
2019-05-23T13:29:26.768Z,8.93
2019-05-23T13:31:56.080Z,9.45
2019-05-23T13:34:25.716Z,9.23
2019-05-23T13:36:55.545Z,10.38
2019-05-23T13:39:25.405Z,7.10
2019-05-23T13:41:55.035Z,9.75
2019-05-23T13:44:33.807Z,9.98
2019-05-23T13:46:55.745Z,6.72
2019-05-23T13:49:25.653Z,11.28
2019-05-23T13:51:55.243Z,9.65
2019-05-23T13:54:24.837Z,8.05
2019-05-23T13:56:55.099Z,9.03
2019-05-23T13:59:24.482Z,10.43
2019-05-23T14:01:54.648Z,10.72
2019-05-23T14:04:24.481Z,6.58
2019-05-23T14:06:53.863Z,7.45
2019-05-23T14:09:25.290Z,10.30
2019-05-23T14:12:19.951Z,9.60
2019-05-23T14:14:26.015Z,11.83
2019-05-23T14:16:57.318Z,10.80
2019-05-23T14:19:29.335Z,8.33
2019-05-23T14:21:58.070Z,8.65
2019-05-23T14:24:27.779Z,8.00
2019-05-23T14:27:14.946Z,9.28
2019-05-23T14:29:44.498Z,8.13
2019-05-23T14:32:21.196Z,9.63
2019-05-23T14:34:52.282Z,8.05
2019-05-23T14:37:24.217Z,8.63
2019-05-23T14:39:54.970Z,6.22
2019-05-23T14:42:28.576Z,8.60
2019-05-23T14:45:00.791Z,11.90
2019-05-23T14:47:47.678Z,10.53
2019-05-23T14:50:27.978Z,11.35
2019-05-23T14:52:59.239Z,10.00
2019-05-23T14:55:29.218Z,8.73
2019-05-23T14:57:59.368Z,9.40
2019-05-23T15:00:29.931Z,6.47
2019-05-23T15:02:59.311Z,8.50
2019-05-23T15:05:29.705Z,10.93
2019-05-23T15:07:59.153Z,6.87
2019-05-23T15:10:29.050Z,7.37
2019-05-23T15:12:58.837Z,7.33
2019-05-23T15:15:28.346Z,12.65
2019-05-23T15:17:57.667Z,6.03
2019-05-23T15:23:15.384Z,7.78
2019-05-23T15:25:44.681Z,8.95
2019-05-23T15:28:14.383Z,7.08
2019-05-23T15:30:43.890Z,8.18
2019-05-23T15:33:13.266Z,8.38
2019-05-23T15:35:43.179Z,6.45
2019-05-23T15:38:12.509Z,8.18
2019-05-23T15:40:41.774Z,8.55
2019-05-23T15:43:11.067Z,5.70
2019-05-23T15:45:40.459Z,10.00
2019-05-23T15:48:10.082Z,7.22
2019-05-23T15:50:53.094Z,7.15
2019-05-23T15:53:33.277Z,11.00
2019-05-23T15:56:25.854Z,6.42
2019-05-23T15:58:51.759Z,6.92
2019-05-23T16:01:25.980Z,6.75
2019-05-23T16:04:06.125Z,8.60
2019-05-23T16:06:36.495Z,7.78
2019-05-23T16:09:27.724Z,5.90
2019-05-23T16:11:43.368Z,7.72
2019-05-23T16:14:12.806Z,8.15
2019-05-23T16:16:42.767Z,9.50
2019-05-23T16:19:13.480Z,9.43
2019-05-23T16:21:43.128Z,8.70
2019-05-23T16:24:12.986Z,7.55
2019-05-23T16:26:42.622Z,6.72
2019-05-23T16:29:14.080Z,9.00
2019-05-23T16:31:43.653Z,7.37
2019-05-23T16:34:12.940Z,7.12
2019-05-23T16:36:42.313Z,6.78
2019-05-23T16:39:11.629Z,10.50
2019-05-23T16:41:41.194Z,9.13
2019-05-23T16:44:10.764Z,8.80
2019-05-23T16:46:40.448Z,8.93
2019-05-23T16:49:09.750Z,9.43
2019-05-23T16:51:39.115Z,8.60
2019-05-23T16:54:08.860Z,8.90
2019-05-23T16:56:39.803Z,8.50
2019-05-23T16:59:16.919Z,10.55
2019-05-23T17:02:00.460Z,9.00
2019-05-23T17:04:29.395Z,10.65
2019-05-23T17:07:00.418Z,9.05
2019-05-23T17:09:40.326Z,10.20
2019-05-23T17:12:17.063Z,9.88
2019-05-23T17:15:06.386Z,9.15
2019-05-23T17:18:00.706Z,10.32
2019-05-23T17:20:22.048Z,8.35
2019-05-23T17:22:55.804Z,9.68
2019-05-23T17:25:26.877Z,9.43
2019-05-23T17:27:57.876Z,7.78
2019-05-23T17:30:37.773Z,8.33
2019-05-23T17:33:08.488Z,7.78
2019-05-23T17:35:39.079Z,8.93
2019-05-23T17:38:08.458Z,10.08
2019-05-23T17:40:37.821Z,8.63
2019-05-23T17:43:07.941Z,8.58
2019-05-23T17:45:37.741Z,10.58
2019-05-23T17:48:08.628Z,10.13
2019-05-23T17:50:38.024Z,8.13
2019-05-23T17:53:07.472Z,8.63
2019-05-23T17:55:36.768Z,9.45
2019-05-23T17:58:06.502Z,7.83
2019-05-23T18:00:43.517Z,12.37
2019-05-23T18:03:13.657Z,8.60
2019-05-23T18:05:42.967Z,10.28
2019-05-23T18:08:13.104Z,10.58
2019-05-23T18:10:45.702Z,10.05
2019-05-23T18:13:15.162Z,10.70
2019-05-23T18:15:45.914Z,10.30
2019-05-23T18:18:16.374Z,10.90
2019-05-23T18:20:46.465Z,10.48
2019-05-23T18:23:16.629Z,7.25
2019-05-23T18:25:46.505Z,11.08
2019-05-23T18:28:15.878Z,9.00
2019-05-23T18:30:47.140Z,6.72
2019-05-23T18:33:18.166Z,8.20
2019-05-23T18:35:49.203Z,8.35
2019-05-23T18:38:18.879Z,11.45
2019-05-23T18:41:01.529Z,7.85
2019-05-23T18:43:19.606Z,9.00
2019-05-23T18:45:50.611Z,9.90
2019-05-23T18:48:20.324Z,7.00
2019-05-23T18:50:50.253Z,8.85
2019-05-23T18:53:19.881Z,8.10
2019-05-23T18:55:49.865Z,8.75
2019-05-23T18:58:20.433Z,7.95
2019-05-23T19:01:03.044Z,8.53
2019-05-23T19:03:33.012Z,7.00
2019-05-23T19:06:02.727Z,7.42
2019-05-23T19:08:32.608Z,6.45
2019-05-23T19:11:19.013Z,7.90
2019-05-23T19:13:33.012Z,7.67
2019-05-23T19:16:02.334Z,8.13
2019-05-23T19:18:32.542Z,8.33
2019-05-23T19:21:02.547Z,8.45
2019-05-23T19:23:32.388Z,8.05
2019-05-23T19:26:01.982Z,8.85
2019-05-23T19:28:31.891Z,9.88
2019-05-23T19:31:01.220Z,10.13
2019-05-23T19:33:30.588Z,8.55
2019-05-23T19:36:00.074Z,7.30
2019-05-23T19:38:29.416Z,8.05
2019-05-23T19:40:58.997Z,8.10
2019-05-23T19:43:28.370Z,9.40
2019-05-23T19:45:57.678Z,7.67
2019-05-23T19:48:27.620Z,8.48
2019-05-23T19:50:56.933Z,7.37
2019-05-23T19:53:27.068Z,8.40
2019-05-23T19:55:56.727Z,11.68
2019-05-23T19:58:26.643Z,7.78
2019-05-23T20:00:57.200Z,10.93
2019-05-23T20:03:26.563Z,7.83
2019-05-23T20:05:57.513Z,9.08
2019-05-23T20:08:27.113Z,8.13
2019-05-23T20:10:57.072Z,6.58
2019-05-23T20:13:26.993Z,8.68
2019-05-23T20:15:56.621Z,9.05
2019-05-23T20:18:26.191Z,9.50
2019-05-23T20:20:55.513Z,7.30
2019-05-23T20:23:24.818Z,7.33
2019-05-23T20:25:54.147Z,9.58
2019-05-23T20:28:24.668Z,11.78
2019-05-23T20:30:54.486Z,8.85
2019-05-23T20:33:24.192Z,13.68
2019-05-23T20:35:53.500Z,12.58
2019-05-23T20:38:24.537Z,9.33
2019-05-23T20:40:54.284Z,7.80
2019-05-23T20:43:24.391Z,8.05
2019-05-23T20:45:55.079Z,10.98
2019-05-23T20:48:25.169Z,10.18
2019-05-23T20:50:55.095Z,7.83
2019-05-23T20:53:24.484Z,8.90
2019-05-23T20:55:53.810Z,8.05
2019-05-23T20:58:23.483Z,7.92
2019-05-23T21:00:56.854Z,9.30
2019-05-23T21:03:27.414Z,7.50
2019-05-23T21:05:56.745Z,6.87
2019-05-23T21:08:26.523Z,7.15
2019-05-23T21:10:56.063Z,9.55
2019-05-23T21:13:25.432Z,8.28
2019-05-23T21:15:54.772Z,18.12
2019-05-23T21:18:24.154Z,23.75
2019-05-23T21:20:53.461Z,8.98
2019-05-23T21:23:22.785Z,8.05
2019-05-23T21:25:56.634Z,7.80
2019-05-23T21:28:25.963Z,11.25
2019-05-23T21:30:55.408Z,7.15
2019-05-23T21:33:25.120Z,11.48
2019-05-23T21:35:54.842Z,10.10
2019-05-23T21:38:24.709Z,7.47
2019-05-23T21:40:54.094Z,8.63
2019-05-23T21:43:23.832Z,10.72
2019-05-23T21:45:53.508Z,8.90
2019-05-23T21:48:23.013Z,9.15
2019-05-23T21:50:52.377Z,9.18
2019-05-23T21:53:21.674Z,9.65
2019-05-23T21:55:51.066Z,7.70
2019-05-23T21:58:20.447Z,10.65
2019-05-23T22:01:07.620Z,8.43
2019-05-23T22:04:00.975Z,10.38
2019-05-23T22:06:40.788Z,7.42
2019-05-23T22:09:13.304Z,12.53
2019-05-23T22:11:42.962Z,9.25
2019-05-23T22:14:12.347Z,9.00
2019-05-23T22:16:41.900Z,8.23
2019-05-23T22:19:13.270Z,10.25
2019-05-23T22:21:42.608Z,9.25
2019-05-23T22:24:13.296Z,8.90
2019-05-23T22:26:42.751Z,8.75
2019-05-23T22:29:12.126Z,7.95
2019-05-23T22:31:41.445Z,8.88
2019-05-23T22:34:28.550Z,10.80
2019-05-23T22:36:59.039Z,11.18
2019-05-23T22:39:28.652Z,11.78
2019-05-23T22:41:58.259Z,8.38
2019-05-23T22:44:28.174Z,8.98
2019-05-23T22:46:57.959Z,9.18
2019-05-23T22:49:27.620Z,10.25
2019-05-23T22:51:57.198Z,7.37
2019-05-23T22:54:26.562Z,8.05
2019-05-23T22:56:55.871Z,8.40
2019-05-23T22:59:25.243Z,8.55
2019-05-23T23:02:10.952Z,8.50
2019-05-23T23:04:40.256Z,9.03
2019-05-23T23:07:09.650Z,8.60
2019-05-23T23:09:40.989Z,10.75
2019-05-23T23:12:10.559Z,7.47
2019-05-23T23:14:39.911Z,7.55
2019-05-23T23:17:09.358Z,7.40
2019-05-23T23:19:39.056Z,7.45
2019-05-23T23:22:12.047Z,9.23
2019-05-23T23:24:44.571Z,10.40
2019-05-23T23:27:15.532Z,7.67
2019-05-23T23:29:45.249Z,10.80
2019-05-23T23:32:14.875Z,9.13
2019-05-23T23:34:44.331Z,9.15
2019-05-23T23:37:13.637Z,10.15
2019-05-23T23:39:43.026Z,9.38
2019-05-23T23:42:12.658Z,13.08
2019-05-23T23:44:41.527Z,11.35
2019-05-23T23:47:28.596Z,9.60
2019-05-23T23:50:15.825Z,9.18
2019-05-23T23:53:02.921Z,9.18
2019-05-23T23:55:49.755Z,9.78
2019-05-23T23:58:18.386Z,9.15
